createdAt,value
2023-01-21T00:00:27.901Z,7.15
2023-01-21T00:05:30.133Z,6.72
2023-01-21T00:10:32.334Z,7.80
2023-01-21T00:15:36.575Z,7.18
2023-01-21T00:20:38.776Z,6.90
2023-01-21T00:25:41.072Z,7.50
2023-01-21T00:30:43.353Z,7.88
2023-01-21T00:35:45.720Z,9.35
2023-01-21T00:40:47.918Z,11.65
2023-01-21T00:45:50.102Z,14.43
2023-01-21T00:50:53.862Z,21.35
2023-01-21T00:56:00.397Z,18.58
2023-01-21T01:01:13.622Z,19.73
2023-01-21T01:06:18.993Z,15.10
2023-01-21T01:11:21.717Z,12.85
2023-01-21T01:16:24.858Z,13.13
2023-01-21T01:21:27.091Z,13.82
2023-01-21T01:26:29.840Z,13.95
2023-01-21T01:31:32.662Z,14.05
2023-01-21T01:36:34.883Z,11.52
2023-01-21T01:41:37.353Z,10.30
2023-01-21T01:46:39.584Z,9.25
2023-01-21T01:56:55.324Z,6.47
2023-01-21T02:02:01.089Z,6.10
2023-01-21T02:07:04.418Z,7.10
2023-01-21T02:12:07.355Z,8.07
2023-01-21T02:27:57.250Z,7.20
2023-01-21T02:38:39.157Z,7.47
2023-01-21T02:49:05.226Z,7.60
2023-01-21T02:54:35.876Z,8.05
2023-01-21T02:59:40.324Z,11.48
2023-01-21T03:10:06.712Z,10.00
2023-01-21T03:15:38.463Z,9.27
2023-01-21T03:20:47.610Z,14.05
2023-01-21T03:25:51.203Z,15.98
2023-01-21T03:31:00.879Z,10.50
2023-01-21T03:36:11.630Z,10.00
2023-01-21T03:41:23.543Z,6.47
2023-01-21T03:46:37.271Z,5.78
2023-01-21T03:51:47.485Z,5.75
2023-01-21T03:56:49.685Z,5.30
2023-01-21T04:01:51.872Z,5.15
2023-01-21T04:06:54.177Z,5.38
2023-01-21T04:11:56.453Z,7.90
2023-01-21T04:16:58.723Z,5.85
2023-01-21T04:22:01.289Z,5.70
2023-01-21T04:27:03.622Z,5.80
2023-01-21T04:32:05.931Z,5.80
2023-01-21T04:37:08.158Z,6.10
2023-01-21T04:42:10.415Z,5.50
2023-01-21T04:47:12.574Z,6.00
2023-01-21T04:52:14.770Z,5.90
2023-01-21T04:57:17.050Z,6.32
2023-01-21T05:02:19.277Z,6.15
2023-01-21T05:07:21.898Z,6.05
2023-01-21T05:12:24.207Z,10.48
2023-01-21T05:17:26.645Z,6.90
2023-01-21T05:22:28.842Z,5.60
2023-01-21T05:27:31.271Z,6.45
2023-01-21T05:32:33.586Z,6.57
2023-01-21T05:37:35.843Z,5.93
2023-01-21T05:42:38.089Z,6.40
2023-01-21T05:47:40.420Z,6.03
2023-01-21T05:52:42.648Z,5.63
2023-01-21T05:57:44.896Z,6.38
2023-01-21T06:02:47.081Z,6.30
2023-01-21T06:07:50.471Z,13.90
2023-01-21T06:12:52.856Z,6.00
2023-01-21T06:17:55.540Z,6.35
2023-01-21T06:22:58.661Z,6.00
2023-01-21T06:28:01.433Z,6.00
2023-01-21T06:33:03.780Z,6.70
2023-01-21T06:38:06.005Z,5.38
2023-01-21T06:43:08.443Z,5.20
2023-01-21T06:48:10.654Z,5.80
2023-01-21T06:53:13.416Z,5.20
2023-01-21T06:58:15.687Z,5.70
2023-01-21T07:03:17.966Z,5.70
2023-01-21T07:08:20.284Z,5.30
2023-01-21T07:13:23.453Z,4.90
2023-01-21T07:18:25.789Z,5.38
2023-01-21T07:23:28.112Z,6.15
2023-01-21T07:28:30.364Z,5.28
2023-01-21T07:33:32.725Z,6.00
2023-01-21T07:38:35.168Z,7.10
2023-01-21T07:43:37.422Z,6.32
2023-01-21T07:48:39.610Z,6.13
2023-01-21T07:53:41.800Z,6.22
2023-01-21T07:58:44.395Z,6.22
2023-01-21T08:03:46.615Z,5.57
2023-01-21T08:08:48.970Z,6.43
2023-01-21T08:13:51.246Z,6.88
2023-01-21T08:18:54.633Z,6.30
2023-01-21T08:23:56.948Z,6.03
2023-01-21T08:28:59.209Z,5.72
2023-01-21T08:34:01.816Z,6.82
2023-01-21T08:39:06.436Z,7.05
2023-01-21T08:44:09.072Z,6.57
2023-01-21T08:49:11.535Z,18.83
2023-01-21T08:54:13.831Z,7.90
2023-01-21T08:59:17.027Z,6.90
2023-01-21T09:04:19.308Z,7.30
2023-01-21T09:09:21.595Z,7.15
2023-01-21T09:14:23.883Z,23.67
2023-01-21T09:19:26.331Z,7.30
2023-01-21T09:24:28.688Z,6.57
2023-01-21T09:29:30.959Z,7.07
2023-01-21T09:34:35.562Z,7.68
2023-01-21T09:39:38.132Z,9.40
2023-01-21T09:44:44.977Z,8.10
2023-01-21T09:54:58.568Z,8.10
2023-01-21T10:05:46.808Z,9.52
2023-01-21T10:11:02.294Z,10.55
2023-01-21T10:21:45.794Z,8.07
2023-01-21T10:26:49.879Z,9.20
2023-01-21T10:31:59.501Z,7.70
2023-01-21T11:03:10.848Z,8.32
2023-01-21T11:08:20.177Z,8.27
2023-01-21T11:13:23.283Z,9.48
2023-01-21T11:18:43.047Z,8.20
2023-01-21T11:23:57.548Z,11.98
2023-01-21T11:34:20.545Z,6.85
2023-01-21T11:39:26.843Z,9.70
2023-01-21T11:44:29.075Z,9.07
2023-01-21T11:49:33.273Z,10.68
2023-01-21T11:54:40.455Z,9.38
2023-01-21T11:59:47.204Z,11.02
2023-01-21T12:04:54.037Z,8.18
2023-01-21T12:10:22.949Z,7.00
2023-01-21T12:25:58.037Z,9.30
2023-01-21T12:31:37.622Z,11.65
2023-01-21T12:36:53.209Z,9.65
2023-01-21T12:47:36.053Z,7.65
2023-01-21T12:53:02.717Z,8.98
2023-01-21T12:58:10.117Z,9.20
2023-01-21T13:13:42.003Z,11.60
2023-01-21T13:18:50.500Z,9.32
2023-01-21T13:50:29.965Z,8.82
2023-01-21T14:00:55.450Z,9.15
2023-01-21T14:06:22.468Z,9.00
2023-01-21T14:11:35.677Z,9.13
2023-01-21T14:22:12.949Z,9.35
2023-01-21T14:43:40.497Z,10.50
2023-01-21T14:54:15.079Z,8.88
2023-01-21T14:59:42.039Z,9.38
2023-01-21T15:04:54.601Z,10.38
2023-01-21T15:10:00.482Z,10.20
2023-01-21T15:15:24.206Z,17.50
2023-01-21T15:20:48.051Z,12.15
2023-01-21T15:36:34.752Z,17.73
2023-01-21T15:52:36.665Z,12.02
2023-01-21T16:03:16.269Z,11.02
2023-01-21T16:19:00.525Z,13.52
2023-01-21T16:24:08.629Z,14.57
2023-01-21T16:29:14.088Z,15.88
2023-01-21T16:34:38.029Z,15.85
2023-01-21T16:39:42.144Z,15.85
2023-01-21T16:44:44.375Z,18.00
2023-01-21T16:49:46.660Z,14.13
2023-01-21T16:54:51.775Z,17.63
2023-01-21T16:59:56.039Z,13.57
2023-01-21T17:05:00.924Z,13.45
2023-01-21T17:10:08.583Z,14.13
2023-01-21T17:15:25.559Z,13.55
2023-01-21T17:25:49.547Z,13.30
2023-01-21T17:31:21.074Z,13.30
2023-01-21T17:36:32.174Z,13.40
2023-01-21T17:41:37.898Z,17.92
2023-01-21T17:46:46.028Z,16.08
2023-01-21T17:51:49.313Z,16.80
2023-01-21T18:02:04.853Z,14.15
2023-01-21T18:12:29.559Z,13.57
2023-01-21T18:17:32.221Z,13.20
2023-01-21T18:22:36.087Z,14.43
2023-01-21T18:27:38.466Z,15.18
2023-01-21T18:32:42.675Z,18.02
2023-01-21T18:37:45.093Z,17.95
2023-01-21T18:42:50.811Z,15.18
2023-01-21T18:47:53.428Z,13.55
2023-01-21T18:52:56.624Z,12.38
2023-01-21T18:57:58.881Z,14.52
2023-01-21T19:03:01.715Z,14.65
2023-01-21T19:08:06.243Z,13.60
2023-01-21T19:13:10.074Z,15.07
2023-01-21T19:18:14.377Z,15.70
2023-01-21T19:23:18.391Z,12.32
2023-01-21T19:28:21.820Z,11.05
2023-01-21T19:33:25.059Z,10.80
2023-01-21T19:38:27.609Z,17.25
2023-01-21T19:43:29.954Z,15.55
2023-01-21T19:48:32.357Z,18.65
2023-01-21T19:53:34.838Z,13.07
2023-01-21T19:58:38.213Z,16.15
2023-01-21T20:03:54.614Z,13.98
2023-01-21T20:09:01.985Z,11.05
2023-01-21T20:14:04.324Z,9.48
2023-01-21T20:19:09.072Z,9.73
2023-01-21T20:24:11.398Z,9.60
2023-01-21T20:29:16.676Z,9.20
2023-01-21T20:34:18.891Z,9.40
2023-01-21T20:39:21.371Z,9.55
2023-01-21T20:44:25.226Z,8.98
2023-01-21T20:49:27.467Z,10.00
2023-01-21T20:54:29.718Z,8.98
2023-01-21T20:59:32.231Z,9.40
2023-01-21T21:20:19.782Z,9.73
2023-01-21T21:25:25.700Z,9.75
2023-01-21T21:30:33.086Z,9.70
2023-01-21T21:35:37.147Z,10.70
2023-01-21T21:40:39.417Z,9.30
2023-01-21T21:46:02.266Z,9.95
2023-01-21T21:51:06.478Z,28.10
2023-01-21T21:56:11.238Z,9.95
2023-01-21T22:01:21.017Z,8.50
2023-01-21T22:06:23.294Z,8.98
2023-01-21T22:11:26.797Z,8.85
2023-01-21T22:16:29.586Z,7.93
2023-01-21T22:21:34.080Z,7.47
2023-01-21T22:26:36.511Z,7.82
2023-01-21T22:31:38.880Z,8.18
2023-01-21T22:36:46.976Z,7.65
2023-01-21T22:41:49.296Z,7.82
2023-01-21T22:46:51.523Z,7.82
2023-01-21T22:51:55.125Z,8.38
2023-01-21T22:56:57.365Z,7.72
2023-01-21T23:01:59.563Z,8.77
2023-01-21T23:07:01.883Z,7.63
2023-01-21T23:12:04.312Z,7.60
2023-01-21T23:17:06.550Z,9.43
2023-01-21T23:22:09.072Z,8.00
2023-01-21T23:27:11.321Z,8.13
2023-01-21T23:32:13.604Z,11.25
2023-01-21T23:37:15.839Z,8.25
2023-01-21T23:42:19.477Z,9.20
2023-01-21T23:47:21.722Z,8.55
2023-01-21T23:52:23.945Z,7.40
2023-01-21T23:57:26.336Z,8.10
